createdAt,value
2023-01-01T00:01:21.580Z,95.24
2023-01-01T00:03:52.261Z,94.67
2023-01-01T00:06:19.146Z,94.82
2023-01-01T00:08:46.786Z,95.68
2023-01-01T00:11:13.567Z,95.78
2023-01-01T00:13:41.630Z,95.39
2023-01-01T00:16:11.208Z,96.48
2023-01-01T00:18:38.397Z,96.13
2023-01-01T00:21:11.379Z,95.97
2023-01-01T00:23:38.327Z,95.68
2023-01-01T00:26:16.131Z,95.54
2023-01-01T00:28:43.084Z,95.11
2023-01-01T00:31:17.409Z,95.50
2023-01-01T00:33:44.932Z,95.33
2023-01-01T00:36:14.608Z,96.03
2023-01-01T00:38:42.155Z,96.27
2023-01-01T00:41:08.506Z,96.31
2023-01-01T00:43:35.022Z,96.01
2023-01-01T00:46:01.914Z,96.15
2023-01-01T00:48:28.255Z,95.81
2023-01-01T00:50:54.626Z,96.43
2023-01-01T00:53:21.791Z,96.42
2023-01-01T00:55:50.326Z,96.11
2023-01-01T00:58:18.437Z,95.96
2023-01-01T01:00:45.749Z,96.12
2023-01-01T01:03:27.819Z,95.55
2023-01-01T01:06:10.852Z,97.12
2023-01-01T01:08:40.433Z,96.15
2023-01-01T01:11:17.987Z,96.36
2023-01-01T01:13:46.766Z,97.37
2023-01-01T01:16:19.662Z,96.82
2023-01-01T01:18:46.961Z,96.56
2023-01-01T01:21:18.831Z,97.23
2023-01-01T01:23:45.368Z,97.67
2023-01-01T01:26:14.885Z,97.94
2023-01-01T01:28:48.863Z,97.14
2023-01-01T01:31:16.996Z,96.86
2023-01-01T01:33:44.806Z,96.82
2023-01-01T01:36:11.657Z,95.97
2023-01-01T01:38:38.124Z,95.97
2023-01-01T01:41:04.793Z,95.88
2023-01-01T01:43:31.074Z,95.66
2023-01-01T01:46:01.523Z,95.93
2023-01-01T01:48:28.530Z,95.86
2023-01-01T01:50:56.433Z,94.39
2023-01-01T01:53:30.573Z,93.63
2023-01-01T01:56:02.955Z,92.86
2023-01-01T01:58:31.248Z,92.86
2023-01-01T02:00:58.138Z,93.15
2023-01-01T02:03:59.324Z,92.47
2023-01-01T02:06:27.913Z,92.32
2023-01-01T02:08:57.135Z,92.46
2023-01-01T02:11:23.714Z,92.64
2023-01-01T02:13:54.240Z,92.59
2023-01-01T02:16:27.485Z,91.39
2023-01-01T02:19:05.373Z,92.11
2023-01-01T02:21:42.974Z,92.09
2023-01-01T02:24:30.705Z,92.07
2023-01-01T02:27:03.219Z,92.58
2023-01-01T02:29:54.233Z,92.68
2023-01-01T02:32:24.952Z,92.32
2023-01-01T02:34:57.648Z,92.16
2023-01-01T02:37:27.353Z,92.39
2023-01-01T02:39:59.467Z,92.33
2023-01-01T02:42:29.249Z,92.10
2023-01-01T02:44:58.241Z,92.16
2023-01-01T02:47:24.587Z,92.52
2023-01-01T02:50:09.564Z,92.79
2023-01-01T02:52:48.861Z,92.74
2023-01-01T02:55:32.419Z,92.74
2023-01-01T02:58:46.275Z,93.17
2023-01-01T03:01:26.310Z,92.78
2023-01-01T03:04:06.445Z,93.01
2023-01-01T03:06:42.308Z,93.91
2023-01-01T03:09:29.347Z,93.77
2023-01-01T03:12:20.553Z,93.67
2023-01-01T03:15:01.293Z,93.39
2023-01-01T03:17:35.273Z,92.83
2023-01-01T03:20:08.892Z,93.90
2023-01-01T03:25:12.012Z,93.83
2023-01-01T03:27:47.061Z,94.77
2023-01-01T03:30:16.760Z,94.12
2023-01-01T03:33:00.240Z,93.74
2023-01-01T03:35:38.818Z,94.28
2023-01-01T03:38:11.538Z,94.39
2023-01-01T03:40:39.579Z,93.61
2023-01-01T03:43:14.499Z,94.92
2023-01-01T03:45:44.689Z,94.67
2023-01-01T03:48:11.867Z,94.25
2023-01-01T03:51:07.017Z,94.92
2023-01-01T03:53:42.671Z,95.06
2023-01-01T03:56:31.066Z,94.75
2023-01-01T03:59:05.606Z,94.86
2023-01-01T04:01:46.755Z,94.80
2023-01-01T04:04:15.512Z,95.04
2023-01-01T04:06:42.125Z,94.67
2023-01-01T04:09:16.162Z,95.48
2023-01-01T04:12:04.067Z,95.28
2023-01-01T04:14:33.675Z,95.57
2023-01-01T04:17:01.232Z,95.41
2023-01-01T04:19:28.258Z,95.37
2023-01-01T04:21:54.577Z,96.23
2023-01-01T04:24:20.951Z,96.02
2023-01-01T04:26:48.226Z,96.54
2023-01-01T04:29:14.698Z,96.58
2023-01-01T04:31:41.070Z,96.68
2023-01-01T04:34:07.846Z,96.77
2023-01-01T04:36:34.526Z,97.51
2023-01-01T04:39:01.612Z,98.12
2023-01-01T04:41:28.035Z,98.33
2023-01-01T04:43:54.350Z,98.15
2023-01-01T04:46:22.074Z,98.51
2023-01-01T04:48:49.005Z,99.03
2023-01-01T04:51:17.784Z,98.50
2023-01-01T04:53:44.116Z,99.38
2023-01-01T04:56:13.928Z,98.83
2023-01-01T04:58:41.838Z,98.71
2023-01-01T05:01:14.050Z,98.34
2023-01-01T05:03:40.419Z,99.19
2023-01-01T05:06:09.561Z,99.37
2023-01-01T05:08:37.994Z,99.13
2023-01-01T05:11:07.786Z,98.44
2023-01-01T05:13:34.892Z,98.07
2023-01-01T05:16:05.881Z,97.61
2023-01-01T05:18:32.747Z,97.29
2023-01-01T05:21:04.411Z,97.79
2023-01-01T05:23:31.260Z,97.44
2023-01-01T05:25:58.342Z,96.41
2023-01-01T05:28:24.811Z,96.36
2023-01-01T05:30:52.547Z,96.24
2023-01-01T05:33:19.522Z,95.88
2023-01-01T05:35:46.223Z,96.24
2023-01-01T05:38:12.550Z,96.10
2023-01-01T05:40:40.057Z,95.59
2023-01-01T05:43:07.283Z,96.30
2023-01-01T05:45:34.117Z,96.18
2023-01-01T05:48:00.564Z,95.33
2023-01-01T05:50:26.870Z,94.77
2023-01-01T05:52:53.198Z,94.48
2023-01-01T05:55:19.490Z,95.08
2023-01-01T05:57:45.782Z,95.16
2023-01-01T06:00:12.532Z,95.44
2023-01-01T06:02:38.961Z,95.18
2023-01-01T06:05:05.591Z,94.71
2023-01-01T06:07:31.930Z,95.22
2023-01-01T06:09:58.215Z,95.48
2023-01-01T06:12:24.516Z,94.56
2023-01-01T06:14:50.808Z,94.79
2023-01-01T06:17:17.094Z,94.36
2023-01-01T06:19:43.427Z,93.90
2023-01-01T06:22:09.787Z,93.68
2023-01-01T06:24:39.145Z,93.19
2023-01-01T06:27:06.933Z,93.33
2023-01-01T06:29:33.285Z,92.73
2023-01-01T06:31:59.567Z,93.39
2023-01-01T06:34:25.916Z,92.92
2023-01-01T06:36:52.240Z,94.07
2023-01-01T06:39:18.575Z,93.95
2023-01-01T06:41:44.915Z,93.89
2023-01-01T06:44:11.205Z,93.43
2023-01-01T06:46:37.603Z,93.75
2023-01-01T06:49:06.741Z,93.77
2023-01-01T06:51:37.803Z,92.97
2023-01-01T06:54:04.940Z,92.86
2023-01-01T06:56:31.674Z,93.22
2023-01-01T06:58:58.364Z,92.84
2023-01-01T07:01:27.766Z,92.04
2023-01-01T07:03:55.592Z,91.80
2023-01-01T07:06:23.270Z,92.77
2023-01-01T07:08:50.008Z,92.62
2023-01-01T07:11:16.887Z,92.80
2023-01-01T07:13:44.073Z,92.79
2023-01-01T07:16:13.503Z,93.12
2023-01-01T07:18:40.555Z,93.16
2023-01-01T07:21:28.702Z,93.15
2023-01-01T07:23:56.325Z,92.96
2023-01-01T07:26:27.791Z,93.32
2023-01-01T07:28:54.163Z,93.26
2023-01-01T07:31:20.728Z,93.13
2023-01-01T07:33:47.301Z,92.72
2023-01-01T07:36:13.954Z,92.92
2023-01-01T07:38:40.332Z,93.54
2023-01-01T07:41:07.049Z,92.66
2023-01-01T07:43:33.467Z,93.01
2023-01-01T07:46:00.105Z,92.63
2023-01-01T07:48:26.731Z,93.01
2023-01-01T07:50:53.122Z,93.42
2023-01-01T07:53:19.474Z,93.92
2023-01-01T07:55:45.840Z,94.02
2023-01-01T07:58:13.100Z,94.02
2023-01-01T08:00:40.132Z,94.01
2023-01-01T08:03:07.844Z,94.37
2023-01-01T08:05:35.723Z,94.52
2023-01-01T08:08:02.055Z,95.60
2023-01-01T08:10:28.367Z,95.42
2023-01-01T08:13:00.210Z,95.46
2023-01-01T08:15:26.607Z,95.12
2023-01-01T08:18:00.828Z,95.96
2023-01-01T08:20:28.709Z,96.22
2023-01-01T08:22:55.318Z,96.15
2023-01-01T08:25:22.067Z,96.41
2023-01-01T08:27:48.703Z,96.36
2023-01-01T08:30:16.343Z,97.17
2023-01-01T08:32:42.697Z,96.67
2023-01-01T08:35:09.732Z,96.35
2023-01-01T08:37:36.058Z,96.84
2023-01-01T08:40:02.467Z,96.95
2023-01-01T08:42:28.807Z,96.37
2023-01-01T08:44:55.135Z,96.57
2023-01-01T08:47:23.838Z,95.94
2023-01-01T08:49:50.573Z,94.61
2023-01-01T08:52:18.008Z,94.53
2023-01-01T08:54:44.684Z,94.61
2023-01-01T08:57:11.792Z,93.82
2023-01-01T08:59:38.134Z,94.57
2023-01-01T09:02:04.866Z,94.54
2023-01-01T09:04:31.722Z,93.77
2023-01-01T09:06:58.171Z,94.20
2023-01-01T09:09:31.052Z,94.43
2023-01-01T09:12:01.612Z,94.80
2023-01-01T09:14:27.927Z,94.08
2023-01-01T09:16:54.234Z,94.53
2023-01-01T09:19:20.535Z,94.35
2023-01-01T09:21:46.848Z,94.28
2023-01-01T09:24:13.185Z,94.24
2023-01-01T09:26:39.503Z,94.79
2023-01-01T09:29:05.784Z,94.66
2023-01-01T09:31:32.187Z,94.78
2023-01-01T09:33:58.536Z,94.50
2023-01-01T09:36:28.634Z,94.93
2023-01-01T09:38:56.428Z,95.47
2023-01-01T09:41:44.775Z,94.67
2023-01-01T09:44:26.268Z,94.98
2023-01-01T09:46:53.959Z,94.22
2023-01-01T09:49:42.742Z,93.65
2023-01-01T09:52:13.570Z,93.76
2023-01-01T09:54:47.631Z,94.20
2023-01-01T09:57:19.760Z,94.30
2023-01-01T09:59:46.739Z,94.17
2023-01-01T10:02:48.084Z,94.39
2023-01-01T10:05:47.665Z,94.64
2023-01-01T10:08:44.720Z,94.59
2023-01-01T10:11:35.451Z,94.36
2023-01-01T10:14:10.054Z,94.26
2023-01-01T10:16:40.075Z,94.46
2023-01-01T10:19:22.328Z,94.89
2023-01-01T10:21:52.119Z,94.45
2023-01-01T10:24:39.615Z,94.38
2023-01-01T10:27:06.623Z,94.14
2023-01-01T10:29:41.683Z,94.39
2023-01-01T10:32:26.771Z,94.73
2023-01-01T10:34:53.244Z,95.37
2023-01-01T10:37:20.600Z,95.45
2023-01-01T10:39:48.028Z,94.83
2023-01-01T10:42:15.550Z,94.67
2023-01-01T10:44:42.963Z,94.57
2023-01-01T10:47:23.877Z,95.43
2023-01-01T10:49:59.506Z,95.42
2023-01-01T10:52:31.511Z,94.27
2023-01-01T10:54:59.811Z,94.50
2023-01-01T10:57:40.244Z,95.39
2023-01-01T11:00:28.400Z,95.84
2023-01-01T11:03:18.008Z,94.79
2023-01-01T11:06:18.026Z,94.91
2023-01-01T11:08:51.314Z,94.63
2023-01-01T11:11:21.582Z,94.26
2023-01-01T11:13:51.168Z,95.11
2023-01-01T11:16:17.743Z,97.25
2023-01-01T11:18:44.340Z,96.92
2023-01-01T11:21:10.865Z,97.33
2023-01-01T11:23:39.770Z,97.32
2023-01-01T11:26:20.512Z,96.96
2023-01-01T11:28:59.115Z,97.18
2023-01-01T11:31:38.816Z,97.08
2023-01-01T11:34:22.759Z,97.97
2023-01-01T11:36:49.105Z,97.79
2023-01-01T11:39:26.667Z,97.68
2023-01-01T11:41:57.715Z,97.84
2023-01-01T11:44:27.124Z,97.57
2023-01-01T11:46:53.782Z,97.86
2023-01-01T11:49:27.208Z,98.05
2023-01-01T11:51:53.711Z,97.77
2023-01-01T11:54:29.570Z,98.07
2023-01-01T11:57:02.409Z,98.55
2023-01-01T11:59:37.902Z,98.14
2023-01-01T12:02:05.079Z,97.72
2023-01-01T12:04:45.065Z,97.67
2023-01-01T12:07:23.584Z,97.92
2023-01-01T12:10:02.872Z,97.69
2023-01-01T12:12:41.398Z,97.55
2023-01-01T12:15:20.156Z,97.48
2023-01-01T12:18:06.196Z,97.41
2023-01-01T12:20:38.043Z,97.60
2023-01-01T12:23:04.778Z,97.37
2023-01-01T12:25:43.702Z,97.22
2023-01-01T12:28:27.212Z,96.81
2023-01-01T12:31:10.826Z,97.12
2023-01-01T12:33:59.162Z,97.11
2023-01-01T12:36:56.530Z,97.64
2023-01-01T12:39:54.223Z,97.21
2023-01-01T12:42:29.176Z,97.38
2023-01-01T12:45:17.633Z,97.66
2023-01-01T12:48:28.495Z,98.11
2023-01-01T12:51:19.631Z,99.02
2023-01-01T12:54:14.097Z,99.14
2023-01-01T12:56:48.083Z,99.23
2023-01-01T12:59:20.404Z,99.06
2023-01-01T13:01:48.281Z,99.34
2023-01-01T13:04:19.333Z,98.85
2023-01-01T13:06:50.832Z,99.10
2023-01-01T13:09:26.381Z,99.10
2023-01-01T13:11:57.588Z,98.85
2023-01-01T13:14:23.840Z,99.30
2023-01-01T13:16:57.643Z,99.37
2023-01-01T13:19:30.582Z,99.67
2023-01-01T13:21:56.975Z,99.96
2023-01-01T13:24:25.860Z,99.34
2023-01-01T13:26:52.657Z,99.03
2023-01-01T13:29:18.919Z,98.69
2023-01-01T13:31:48.355Z,98.52
2023-01-01T13:34:29.936Z,98.70
2023-01-01T13:37:12.632Z,99.11
2023-01-01T13:40:01.395Z,98.90
2023-01-01T13:43:04.645Z,99.23
2023-01-01T13:48:42.696Z,99.24
2023-01-01T13:52:03.554Z,98.67
2023-01-01T13:54:36.189Z,98.70
2023-01-01T13:57:56.832Z,98.51
2023-01-01T14:00:57.931Z,98.63
2023-01-01T14:03:27.126Z,98.86
2023-01-01T14:06:01.676Z,98.91
2023-01-01T14:08:29.917Z,98.72
2023-01-01T14:10:57.500Z,98.91
2023-01-01T14:13:29.971Z,99.28
2023-01-01T14:16:03.189Z,98.45
2023-01-01T14:18:38.390Z,98.44
2023-01-01T14:21:13.201Z,98.61
2023-01-01T14:23:43.851Z,99.08
2023-01-01T14:26:13.629Z,98.49
2023-01-01T14:28:41.467Z,98.58
2023-01-01T14:31:12.912Z,98.72
2023-01-01T14:33:39.701Z,98.92
2023-01-01T14:36:16.361Z,99.16
2023-01-01T14:38:45.184Z,99.92
2023-01-01T14:41:18.784Z,99.45
2023-01-01T14:43:47.700Z,99.70
2023-01-01T14:46:20.584Z,99.67
2023-01-01T14:48:50.096Z,100.00
2023-01-01T14:51:21.695Z,100.00
2023-01-01T14:53:50.351Z,100.00
2023-01-01T14:56:34.020Z,100.00
2023-01-01T14:59:19.210Z,100.00
2023-01-01T15:01:45.727Z,100.00
2023-01-01T15:04:22.732Z,100.00
2023-01-01T15:06:56.922Z,100.00
2023-01-01T15:09:23.966Z,100.00
2023-01-01T15:11:54.860Z,100.00
2023-01-01T15:14:33.568Z,100.00
2023-01-01T15:17:11.536Z,100.00
2023-01-01T15:19:41.108Z,100.00
2023-01-01T15:22:25.041Z,100.00
2023-01-01T15:24:51.759Z,100.00
2023-01-01T15:27:29.004Z,100.00
2023-01-01T15:29:56.933Z,100.00
2023-01-01T15:32:27.134Z,100.00
2023-01-01T15:34:56.522Z,100.00
2023-01-01T15:37:34.910Z,100.00
2023-01-01T15:40:21.183Z,100.00
2023-01-01T15:43:15.579Z,100.00
2023-01-01T15:45:50.886Z,100.00
2023-01-01T15:48:19.549Z,100.00
2023-01-01T15:50:48.656Z,100.00
2023-01-01T15:53:19.779Z,100.00
2023-01-01T15:56:05.447Z,100.00
2023-01-01T15:58:39.175Z,100.00
2023-01-01T16:01:09.090Z,100.00
2023-01-01T16:03:37.399Z,100.00
2023-01-01T16:06:04.013Z,100.00
2023-01-01T16:08:30.326Z,100.00
2023-01-01T16:10:56.922Z,100.00
2023-01-01T16:13:23.403Z,100.00
2023-01-01T16:16:01.428Z,100.00
2023-01-01T16:18:34.103Z,100.00
2023-01-01T16:21:01.861Z,100.00
2023-01-01T16:23:28.565Z,100.00
2023-01-01T16:25:54.893Z,100.00
2023-01-01T16:28:21.288Z,100.00
2023-01-01T16:30:47.757Z,100.00
2023-01-01T16:33:17.001Z,100.00
2023-01-01T16:35:43.960Z,100.00
2023-01-01T16:38:10.681Z,100.00
2023-01-01T16:40:38.362Z,100.00
2023-01-01T16:43:09.300Z,100.00
2023-01-01T16:45:35.785Z,100.00
2023-01-01T16:48:02.104Z,100.00
2023-01-01T16:50:28.408Z,100.00
2023-01-01T16:52:54.751Z,100.00
2023-01-01T16:55:21.052Z,100.00
2023-01-01T16:57:47.729Z,100.00
2023-01-01T17:00:14.790Z,100.00
2023-01-01T17:02:41.957Z,100.00
2023-01-01T17:05:09.697Z,100.00
2023-01-01T17:07:36.086Z,100.00
2023-01-01T17:10:02.707Z,100.00
2023-01-01T17:12:29.037Z,100.00
2023-01-01T17:14:55.374Z,100.00
2023-01-01T17:17:21.698Z,100.00
2023-01-01T17:19:50.466Z,100.00
2023-01-01T17:22:16.840Z,100.00
2023-01-01T17:24:43.708Z,100.00
2023-01-01T17:27:10.256Z,100.00
2023-01-01T17:29:37.612Z,100.00
2023-01-01T17:32:04.144Z,100.00
2023-01-01T17:34:30.508Z,100.00
2023-01-01T17:36:56.841Z,100.00
2023-01-01T17:39:23.172Z,100.00
2023-01-01T17:41:49.593Z,100.00
2023-01-01T17:44:15.896Z,100.00
2023-01-01T17:46:43.996Z,100.00
2023-01-01T17:49:10.420Z,100.00
2023-01-01T17:51:37.230Z,100.00
2023-01-01T17:54:04.601Z,100.00
2023-01-01T17:56:30.970Z,100.00
2023-01-01T17:58:58.043Z,100.00
2023-01-01T18:01:32.550Z,100.00
2023-01-01T18:04:01.917Z,100.00
2023-01-01T18:06:30.005Z,100.00
2023-01-01T18:08:59.106Z,100.00
2023-01-01T18:11:30.150Z,100.00
2023-01-01T18:14:01.844Z,100.00
2023-01-01T18:16:30.414Z,100.00
2023-01-01T18:19:00.838Z,100.00
2023-01-01T18:21:27.475Z,100.00
2023-01-01T18:23:55.292Z,100.00
2023-01-01T18:26:24.006Z,100.00
2023-01-01T18:28:55.243Z,100.00
2023-01-01T18:31:22.992Z,100.00
2023-01-01T18:33:49.811Z,100.00
2023-01-01T18:36:19.728Z,100.00
2023-01-01T18:38:55.394Z,100.00
2023-01-01T18:41:39.290Z,100.00
2023-01-01T18:44:16.842Z,100.00
2023-01-01T18:46:43.174Z,100.00
2023-01-01T18:49:11.279Z,100.00
2023-01-01T18:51:37.606Z,100.00
2023-01-01T18:54:12.764Z,100.00
2023-01-01T18:56:39.622Z,100.00
2023-01-01T18:59:18.792Z,100.00
2023-01-01T19:01:45.979Z,100.00
2023-01-01T19:04:12.649Z,100.00
2023-01-01T19:06:39.432Z,100.00
2023-01-01T19:09:25.303Z,100.00
2023-01-01T19:11:55.150Z,100.00
2023-01-01T19:14:23.999Z,100.00
2023-01-01T19:16:54.942Z,100.00
2023-01-01T19:19:23.097Z,100.00
2023-01-01T19:21:53.952Z,100.00
2023-01-01T19:24:27.952Z,100.00
2023-01-01T19:27:16.453Z,100.00
2023-01-01T19:29:45.537Z,100.00
2023-01-01T19:32:11.899Z,100.00
2023-01-01T19:34:39.588Z,100.00
2023-01-01T19:37:06.729Z,100.00
2023-01-01T19:39:34.357Z,100.00
2023-01-01T19:42:05.020Z,100.00
2023-01-01T19:44:31.758Z,100.00
2023-01-01T19:46:58.182Z,100.00
2023-01-01T19:49:24.543Z,100.00
2023-01-01T19:51:50.876Z,100.00
2023-01-01T19:54:18.278Z,100.00
2023-01-01T19:56:45.958Z,100.00
2023-01-01T19:59:12.313Z,100.00
2023-01-01T20:01:38.828Z,100.00
2023-01-01T20:04:05.365Z,100.00
2023-01-01T20:06:33.822Z,100.00
2023-01-01T20:09:00.187Z,100.00
2023-01-01T20:11:29.471Z,100.00
2023-01-01T20:13:55.765Z,100.00
2023-01-01T20:16:22.197Z,100.00
2023-01-01T20:18:49.294Z,100.00
2023-01-01T20:21:35.594Z,100.00
2023-01-01T20:24:01.898Z,100.00
2023-01-01T20:26:28.807Z,100.00
2023-01-01T20:29:13.872Z,100.00
2023-01-01T20:31:40.287Z,100.00
2023-01-01T20:34:06.740Z,100.00
2023-01-01T20:36:51.707Z,100.00
2023-01-01T20:39:18.080Z,100.00
2023-01-01T20:41:44.429Z,100.00
2023-01-01T20:44:10.738Z,100.00
2023-01-01T20:46:38.187Z,100.00
2023-01-01T20:49:05.015Z,100.00
2023-01-01T20:51:31.321Z,100.00
2023-01-01T20:53:57.644Z,100.00
2023-01-01T20:56:23.948Z,100.00
2023-01-01T20:58:56.112Z,100.00
2023-01-01T21:01:25.597Z,100.00
2023-01-01T21:03:51.987Z,100.00
2023-01-01T21:06:24.107Z,100.00
2023-01-01T21:08:51.282Z,100.00
2023-01-01T21:11:17.587Z,100.00
2023-01-01T21:13:44.341Z,100.00
2023-01-01T21:16:13.707Z,99.97
2023-01-01T21:18:41.345Z,99.16
2023-01-01T21:21:30.044Z,97.15
2023-01-01T21:24:14.284Z,97.16
2023-01-01T21:26:42.606Z,95.04
2023-01-01T21:29:15.023Z,95.03
2023-01-01T21:31:42.993Z,94.79
2023-01-01T21:34:36.707Z,95.16
2023-01-01T21:37:15.676Z,94.67
2023-01-01T21:39:42.150Z,95.02
2023-01-01T21:42:23.758Z,94.54
2023-01-01T21:44:57.301Z,94.88
2023-01-01T21:47:25.357Z,94.41
2023-01-01T21:49:56.178Z,93.92
2023-01-01T21:52:24.720Z,93.75
2023-01-01T21:54:52.834Z,93.96
2023-01-01T21:57:22.603Z,94.40
2023-01-01T21:59:50.250Z,93.72
2023-01-01T22:02:30.893Z,94.48
2023-01-01T22:05:00.605Z,94.19
2023-01-01T22:10:44.666Z,93.40
2023-01-01T22:13:16.705Z,93.37
2023-01-01T22:15:44.280Z,93.41
2023-01-01T22:18:28.252Z,93.12
2023-01-01T22:20:56.094Z,94.25
2023-01-01T22:23:40.336Z,93.96
2023-01-01T22:26:23.039Z,93.50
2023-01-01T22:28:52.703Z,93.89
2023-01-01T22:31:23.902Z,94.05
2023-01-01T22:33:53.746Z,93.85
2023-01-01T22:36:30.911Z,93.39
2023-01-01T22:39:02.101Z,93.34
2023-01-01T22:41:28.742Z,92.68
2023-01-01T22:44:00.665Z,92.88
2023-01-01T22:46:31.805Z,92.58
2023-01-01T22:48:59.704Z,92.79
2023-01-01T22:51:32.043Z,93.21
2023-01-01T22:53:58.354Z,93.26
2023-01-01T22:56:24.706Z,93.65
2023-01-01T22:58:56.820Z,92.74
2023-01-01T23:01:23.869Z,92.93
2023-01-01T23:03:50.459Z,92.59
2023-01-01T23:06:18.046Z,93.36
2023-01-01T23:08:44.622Z,92.80
2023-01-01T23:11:11.247Z,92.51
2023-01-01T23:13:55.944Z,92.93
2023-01-01T23:16:22.648Z,92.52
2023-01-01T23:18:49.002Z,92.29
2023-01-01T23:21:26.687Z,92.62
2023-01-01T23:23:55.906Z,92.72
2023-01-01T23:26:22.784Z,92.58
2023-01-01T23:28:49.268Z,92.41
2023-01-01T23:31:22.749Z,92.22
2023-01-01T23:33:51.361Z,91.58
2023-01-01T23:36:17.703Z,92.17
2023-01-01T23:38:44.161Z,91.90
2023-01-01T23:41:10.493Z,91.96
2023-01-01T23:43:43.173Z,92.31
2023-01-01T23:46:11.686Z,92.94
2023-01-01T23:48:38.535Z,93.66
2023-01-01T23:51:05.131Z,94.22
2023-01-01T23:53:31.487Z,93.47
2023-01-01T23:55:57.833Z,93.29
2023-01-01T23:58:24.182Z,93.19
